createdAt,value
2022-08-26T00:04:35.101Z,99630.97
2022-08-26T00:09:40.158Z,99633.44
2022-08-26T00:14:42.184Z,99637.41
2022-08-26T00:19:43.825Z,99629.91
2022-08-26T00:24:48.093Z,99637.00
2022-08-26T00:29:52.571Z,99629.22
2022-08-26T00:34:55.012Z,99631.66
2022-08-26T00:39:56.764Z,99632.63
2022-08-26T00:45:02.603Z,99638.91
2022-08-26T00:50:16.120Z,99637.28
2022-08-26T00:55:37.856Z,99650.16
2022-08-26T01:00:39.954Z,99636.53
2022-08-26T01:05:43.000Z,99638.00
2022-08-26T01:10:45.791Z,99637.75
2022-08-26T01:15:54.054Z,99633.63
2022-08-26T01:21:33.740Z,99632.97
2022-08-26T01:26:43.097Z,99630.47
2022-08-26T01:31:52.923Z,99636.81
2022-08-26T01:37:07.004Z,99634.47
2022-08-26T01:42:14.707Z,99638.66
2022-08-26T01:47:17.941Z,99642.00
2022-08-26T01:52:28.053Z,99647.38
2022-08-26T01:57:31.075Z,99641.00
2022-08-26T02:02:32.722Z,99648.56
2022-08-26T02:07:34.749Z,99649.81
2022-08-26T02:12:37.246Z,99646.03
2022-08-26T02:17:44.719Z,99658.09
2022-08-26T02:22:47.601Z,99668.16
2022-08-26T02:27:49.320Z,99666.81
2022-08-26T02:32:51.901Z,99667.25
2022-08-26T02:37:53.578Z,99668.00
2022-08-26T02:42:56.019Z,99669.66
2022-08-26T02:47:59.697Z,99668.59
2022-08-26T02:53:01.943Z,99665.88
2022-08-26T02:58:04.476Z,99663.22
2022-08-26T03:03:06.570Z,99666.91
2022-08-26T03:08:11.769Z,99652.34
2022-08-26T03:13:13.910Z,99646.22
2022-08-26T03:18:16.107Z,99647.66
2022-08-26T03:23:18.595Z,99649.81
2022-08-26T03:28:20.294Z,99659.69
2022-08-26T03:33:22.393Z,99658.28
2022-08-26T03:38:27.110Z,99665.91
2022-08-26T03:43:28.756Z,99658.63
2022-08-26T03:48:30.386Z,99660.56
2022-08-26T03:53:31.985Z,99657.50
2022-08-26T03:58:38.033Z,99664.09
2022-08-26T04:04:00.018Z,99661.84
2022-08-26T04:09:06.518Z,99657.38
2022-08-26T04:14:13.473Z,99655.28
2022-08-26T04:19:16.735Z,99662.53
2022-08-26T04:24:20.640Z,99652.41
2022-08-26T04:29:25.421Z,99651.56
2022-08-26T04:34:28.974Z,99656.69
2022-08-26T04:39:31.154Z,99657.66
2022-08-26T04:44:35.866Z,99657.91
2022-08-26T04:49:38.311Z,99657.25
2022-08-26T04:54:42.008Z,99664.09
2022-08-26T04:59:43.772Z,99665.47
2022-08-26T05:04:45.504Z,99678.41
2022-08-26T05:09:47.105Z,99680.81
2022-08-26T05:14:48.805Z,99682.88
2022-08-26T05:19:50.755Z,99685.47
2022-08-26T05:24:52.371Z,99690.63
2022-08-26T05:29:57.424Z,99688.84
2022-08-26T05:34:59.579Z,99687.88
2022-08-26T05:40:04.861Z,99698.66
2022-08-26T05:45:07.337Z,99695.38
2022-08-26T05:50:09.380Z,99701.28
2022-08-26T05:55:11.031Z,99704.06
2022-08-26T06:00:15.457Z,99700.69
2022-08-26T06:05:17.693Z,99703.72
2022-08-26T06:10:32.243Z,99706.59
2022-08-26T06:15:35.624Z,99707.44
2022-08-26T06:20:37.759Z,99701.97
2022-08-26T06:25:39.543Z,99700.25
2022-08-26T06:30:41.746Z,99706.25
2022-08-26T06:35:43.755Z,99708.59
2022-08-26T06:40:50.998Z,99710.69
2022-08-26T06:46:01.940Z,99709.47
2022-08-26T06:51:13.224Z,99715.97
2022-08-26T06:56:17.995Z,99708.50
2022-08-26T07:01:24.430Z,99710.19
2022-08-26T07:06:28.298Z,99711.06
2022-08-26T07:11:30.795Z,99708.28
2022-08-26T07:16:33.231Z,99712.97
2022-08-26T07:21:34.864Z,99707.53
2022-08-26T07:26:36.474Z,99715.00
2022-08-26T07:31:42.419Z,99708.13
2022-08-26T07:36:44.941Z,99698.19
2022-08-26T07:41:47.928Z,99708.00
2022-08-26T07:46:53.074Z,99703.16
2022-08-26T07:51:55.379Z,99702.28
2022-08-26T07:57:00.008Z,99698.13
2022-08-26T08:02:01.965Z,99696.94
2022-08-26T08:07:03.676Z,99697.28
2022-08-26T08:12:14.274Z,99692.25
2022-08-26T08:17:16.474Z,99680.72
2022-08-26T08:22:19.687Z,99688.22
2022-08-26T08:27:23.833Z,99690.34
2022-08-26T08:32:25.880Z,99698.31
2022-08-26T08:37:27.481Z,99690.59
2022-08-26T08:42:32.692Z,99698.19
2022-08-26T08:47:42.964Z,99687.84
2022-08-26T08:52:50.947Z,99671.19
2022-08-26T08:58:16.460Z,99672.91
2022-08-26T09:03:30.827Z,99670.41
2022-08-26T09:08:36.946Z,99671.19
2022-08-26T09:13:39.855Z,99680.22
2022-08-26T09:18:45.981Z,99683.84
2022-08-26T09:23:49.628Z,99676.31
2022-08-26T09:29:00.770Z,99669.72
2022-08-26T09:34:23.179Z,99661.53
2022-08-26T09:39:27.405Z,99666.53
2022-08-26T09:44:29.971Z,99657.28
2022-08-26T09:49:39.901Z,99654.47
2022-08-26T09:54:46.028Z,99651.50
2022-08-26T09:59:49.768Z,99641.91
2022-08-26T10:04:56.641Z,99638.63
2022-08-26T10:09:58.331Z,99636.34
2022-08-26T10:15:08.286Z,99631.63
2022-08-26T10:20:28.867Z,99626.81
2022-08-26T10:25:43.263Z,99615.50
2022-08-26T10:30:50.974Z,99607.28
2022-08-26T10:35:59.777Z,99594.59
2022-08-26T10:41:10.786Z,99600.97
2022-08-26T10:46:19.752Z,99589.72
2022-08-26T10:51:29.723Z,99588.63
2022-08-26T10:57:03.706Z,99585.03
2022-08-26T11:02:15.501Z,99579.41
2022-08-26T11:07:37.683Z,99582.41
2022-08-26T11:12:39.985Z,99576.44
2022-08-26T11:17:44.728Z,99574.94
2022-08-26T11:22:47.883Z,99580.00
2022-08-26T11:27:52.410Z,99576.53
2022-08-26T11:32:57.880Z,99579.84
2022-08-26T11:38:22.017Z,99573.19
2022-08-26T11:43:30.235Z,99568.97
2022-08-26T11:48:34.955Z,99565.38
2022-08-26T11:53:43.132Z,99562.59
2022-08-26T11:58:46.913Z,99552.50
2022-08-26T12:03:51.275Z,99544.06
2022-08-26T12:08:55.742Z,99543.72
2022-08-26T12:14:04.947Z,99546.94
2022-08-26T12:19:27.606Z,99533.88
2022-08-26T12:24:29.939Z,99540.44
2022-08-26T12:29:31.668Z,99536.19
2022-08-26T12:34:33.388Z,99534.97
2022-08-26T12:39:37.519Z,99541.00
2022-08-26T12:44:53.826Z,99550.06
2022-08-26T12:50:25.465Z,99551.78
2022-08-26T12:55:52.852Z,99541.66
2022-08-26T13:01:14.739Z,99546.47
2022-08-26T13:06:22.429Z,99539.28
2022-08-26T13:11:31.613Z,99527.19
2022-08-26T13:16:33.968Z,99532.19
2022-08-26T13:21:49.867Z,99537.63
2022-08-26T13:26:51.878Z,99528.50
2022-08-26T13:31:53.703Z,99533.53
2022-08-26T13:36:56.493Z,99528.94
2022-08-26T13:41:58.267Z,99523.59
2022-08-26T13:46:59.868Z,99535.81
2022-08-26T13:52:03.742Z,99530.44
2022-08-26T13:57:06.109Z,99530.84
2022-08-26T14:02:07.726Z,99530.88
2022-08-26T14:07:11.624Z,99540.22
2022-08-26T14:12:13.242Z,99538.22
2022-08-26T14:17:21.854Z,99546.13
2022-08-26T14:22:23.581Z,99541.78
2022-08-26T14:27:25.498Z,99549.72
2022-08-26T14:32:28.841Z,99554.88
2022-08-26T14:37:30.463Z,99554.50
2022-08-26T14:42:32.449Z,99565.03
2022-08-26T14:47:34.046Z,99562.97
2022-08-26T14:52:55.663Z,99561.09
2022-08-26T14:57:57.302Z,99556.38
2022-08-26T15:02:59.170Z,99551.41
2022-08-26T15:08:02.320Z,99557.63
2022-08-26T15:13:04.275Z,99550.16
2022-08-26T15:18:06.164Z,99556.00
2022-08-26T15:23:08.178Z,99567.16
2022-08-26T15:28:10.294Z,99573.72
2022-08-26T15:33:15.340Z,99570.22
2022-08-26T15:38:18.086Z,99574.34
2022-08-26T15:43:28.774Z,99571.66
2022-08-26T15:48:31.058Z,99580.91
2022-08-26T15:53:34.844Z,99583.56
2022-08-26T15:58:36.737Z,99572.44
2022-08-26T16:03:38.615Z,99571.97
2022-08-26T16:08:40.450Z,99564.50
2022-08-26T16:13:42.084Z,99562.78
2022-08-26T16:18:44.169Z,99570.47
2022-08-26T16:23:46.676Z,99572.69
2022-08-26T16:28:48.412Z,99577.41
2022-08-26T16:33:50.071Z,99582.09
2022-08-26T16:38:55.270Z,99590.78
2022-08-26T16:43:57.330Z,99587.97
2022-08-26T16:48:59.790Z,99601.75
2022-08-26T16:54:02.753Z,99619.47
2022-08-26T16:59:06.223Z,99614.91
2022-08-26T17:04:07.907Z,99619.25
2022-08-26T17:09:09.597Z,99621.00
2022-08-26T17:14:11.616Z,99628.22
2022-08-26T17:19:15.891Z,99625.94
2022-08-26T17:24:17.577Z,99634.47
2022-08-26T17:29:20.194Z,99628.19
2022-08-26T17:34:23.167Z,99627.44
2022-08-26T17:39:24.905Z,99621.13
2022-08-26T17:44:26.702Z,99618.22
2022-08-26T17:49:28.752Z,99624.59
2022-08-26T17:54:30.360Z,99628.09
2022-08-26T17:59:35.533Z,99621.41
2022-08-26T18:04:37.150Z,99621.72
2022-08-26T18:09:38.945Z,99621.47
2022-08-26T18:14:40.580Z,99633.81
2022-08-26T18:24:55.408Z,99646.91
2022-08-26T18:30:01.554Z,99646.13
2022-08-26T18:35:03.722Z,99645.94
2022-08-26T18:40:07.679Z,99652.66
2022-08-26T18:45:10.127Z,99660.59
2022-08-26T18:50:18.401Z,99651.25
2022-08-26T18:55:20.093Z,99668.06
2022-08-26T19:00:21.744Z,99667.09
2022-08-26T19:05:23.410Z,99667.75
2022-08-26T19:10:26.396Z,99661.63
2022-08-26T19:15:28.017Z,99670.34
2022-08-26T19:20:29.652Z,99664.09
2022-08-26T19:25:31.371Z,99672.09
2022-08-26T19:30:33.009Z,99685.25
2022-08-26T19:35:35.681Z,99682.25
2022-08-26T19:40:38.576Z,99678.59
2022-08-26T19:45:40.391Z,99677.50
2022-08-26T19:50:42.339Z,99680.63
2022-08-26T19:55:43.965Z,99694.78
2022-08-26T20:00:45.759Z,99691.63
2022-08-26T20:05:47.492Z,99695.66
2022-08-26T20:10:50.238Z,99688.31
2022-08-26T20:15:51.882Z,99686.78
2022-08-26T20:21:12.271Z,99680.00
2022-08-26T20:26:14.090Z,99675.53
2022-08-26T20:31:16.674Z,99677.56
2022-08-26T20:36:20.533Z,99675.91
2022-08-26T20:41:25.417Z,99682.25
2022-08-26T20:46:27.236Z,99689.59
2022-08-26T20:51:29.157Z,99693.25
2022-08-26T20:56:30.848Z,99693.94
2022-08-26T21:01:35.020Z,99697.31
2022-08-26T21:06:38.324Z,99704.13
2022-08-26T21:11:41.263Z,99714.97
2022-08-26T21:16:43.470Z,99720.19
2022-08-26T21:21:47.836Z,99723.31
2022-08-26T21:26:49.887Z,99712.69
2022-08-26T21:31:51.683Z,99729.88
2022-08-26T21:36:54.272Z,99731.88
2022-08-26T21:41:55.971Z,99712.59
2022-08-26T21:46:57.584Z,99727.03
2022-08-26T21:52:00.436Z,99731.72
2022-08-26T21:57:02.597Z,99737.22
2022-08-26T22:02:07.800Z,99732.56
2022-08-26T22:07:09.815Z,99739.22
2022-08-26T22:12:12.210Z,99741.53
2022-08-26T22:17:13.897Z,99737.88
2022-08-26T22:22:15.675Z,99746.19
2022-08-26T22:27:17.606Z,99748.38
2022-08-26T22:32:19.210Z,99749.03
2022-08-26T22:37:20.865Z,99742.38
2022-08-26T22:42:22.464Z,99748.53
2022-08-26T22:47:24.142Z,99749.03
2022-08-26T22:52:25.838Z,99746.38
2022-08-26T22:57:27.862Z,99745.03
2022-08-26T23:02:29.470Z,99742.72
2022-08-26T23:07:31.077Z,99743.38
2022-08-26T23:12:33.529Z,99737.88
2022-08-26T23:17:36.188Z,99745.22
2022-08-26T23:22:37.968Z,99746.88
2022-08-26T23:27:42.063Z,99746.72
2022-08-26T23:32:43.674Z,99751.00
2022-08-26T23:37:48.132Z,99756.00
2022-08-26T23:42:51.962Z,99752.53
2022-08-26T23:47:54.173Z,99746.34
2022-08-26T23:53:08.800Z,99749.69
2022-08-26T23:58:11.690Z,99745.88
